Time;durP1;ratioP1;P1;durP2;ratioP2;P2;SDS_P1;SDS_P2;PMS_P1;PMS_P2;Temp;Humidity;BMP_temperature;BMP_pressure;BME280_temperature;BME280_humidity;BME280_pressure;Samples;Min_cycle;Max_cycle;Signal;HPM_P1;HPM_P2
2022/05/03 00:02:06;;;;;;;8.30;4.60;;;12.90;68.00;;;;;;5057788;28;20041;-72
2022/05/03 00:04:52;;;;;;;5.10;4.60;;;12.80;68.00;;;;;;5027891;28;20038;-73
2022/05/03 00:07:24;;;;;;;5.88;4.85;;;12.80;67.70;;;;;;5020683;28;20131;-73
2022/05/03 00:10:12;;;;;;;8.75;4.50;;;12.80;68.10;;;;;;5027469;28;20576;-72
2022/05/03 00:13:08;;;;;;;4.82;4.32;;;12.70;68.40;;;;;;5012122;28;20032;-73
2022/05/03 00:15:35;;;;;;;6.32;4.55;;;12.80;68.60;;;;;;5018077;28;20415;-74
2022/05/03 00:18:01;;;;;;;5.32;4.32;;;12.80;68.10;;;;;;5003147;28;20056;-73
2022/05/03 00:20:26;;;;;;;6.05;4.30;;;12.80;68.10;;;;;;5014254;28;20071;-72
2022/05/03 00:22:52;;;;;;;4.55;4.15;;;12.80;68.10;;;;;;5027386;28;20048;-72
2022/05/03 00:25:18;;;;;;;5.10;4.45;;;12.80;68.20;;;;;;5056709;28;20064;-73
2022/05/03 00:27:44;;;;;;;6.90;4.85;;;12.80;68.20;;;;;;5008909;28;20041;-73
2022/05/03 00:30:10;;;;;;;5.70;4.95;;;12.80;68.30;;;;;;5031874;28;20627;-73
2022/05/03 00:32:36;;;;;;;5.80;4.70;;;12.70;68.30;;;;;;5045058;28;20033;-73
2022/05/03 00:35:01;;;;;;;5.25;4.55;;;12.70;68.60;;;;;;5041506;28;20936;-72
2022/05/03 00:37:27;;;;;;;4.65;4.10;;;12.70;69.40;;;;;;5059225;28;20051;-73
2022/05/03 00:39:52;;;;;;;4.18;3.58;;;12.60;68.70;;;;;;5031015;28;20036;-72
2022/05/03 00:42:33;;;;;;;4.70;4.20;;;12.60;68.80;;;;;;5033209;28;20029;-73
2022/05/03 00:45:19;;;;;;;7.65;4.90;;;12.60;68.80;;;;;;5042983;28;20049;-73
2022/05/03 00:47:56;;;;;;;7.85;4.90;;;12.60;69.50;;;;;;5057032;28;20033;-73
2022/05/03 00:50:28;;;;;;;7.20;5.05;;;12.50;68.90;;;;;;5029848;28;20044;-72
2022/05/03 00:53:00;;;;;;;4.68;4.25;;;12.50;68.90;;;;;;5023313;28;20501;-73
2022/05/03 00:55:37;;;;;;;5.28;4.47;;;12.50;68.80;;;;;;5041117;28;20067;-72
2022/05/03 00:58:25;;;;;;;5.88;4.70;;;12.40;68.80;;;;;;5039153;28;20071;-73
2022/05/03 01:00:59;;;;;;;6.50;4.78;;;12.30;69.10;;;;;;5026672;28;20219;-72
2022/05/03 01:03:26;;;;;;;4.32;3.92;;;12.40;69.30;;;;;;5031333;28;20069;-72
2022/05/03 01:06:10;;;;;;;5.38;4.50;;;12.30;69.10;;;;;;5039856;28;20696;-72
2022/05/03 01:08:53;;;;;;;6.13;4.63;;;12.20;69.50;;;;;;5042365;28;20666;-72
2022/05/03 01:11:39;;;;;;;6.03;4.78;;;12.20;69.50;;;;;;5045645;28;20464;-73
2022/05/03 01:14:05;;;;;;;6.95;4.43;;;12.20;69.80;;;;;;5026775;28;20128;-72
2022/05/03 01:16:58;;;;;;;5.38;4.30;;;12.10;69.30;;;;;;5041532;28;20133;-72
2022/05/03 01:19:37;;;;;;;5.38;4.47;;;12.00;69.90;;;;;;5047481;28;20037;-72
2022/05/03 01:22:14;;;;;;;5.80;5.07;;;12.00;69.80;;;;;;5014954;28;20037;-72
2022/05/03 01:24:48;;;;;;;8.25;3.83;;;12.00;70.00;;;;;;5058808;28;20044;-72
2022/05/03 01:27:44;;;;;;;5.15;4.55;;;11.90;70.00;;;;;;5039517;28;20063;-72
2022/05/03 01:30:11;;;;;;;5.15;4.45;;;11.90;70.10;;;;;;5014846;28;20497;-73
2022/05/03 01:32:37;;;;;;;5.85;4.25;;;11.90;69.80;;;;;;5041425;28;20409;-73
2022/05/03 01:35:03;;;;;;;5.07;4.47;;;11.90;69.80;;;;;;5007411;28;20577;-72
2022/05/03 01:37:55;;;;;;;10.50;4.72;;;11.80;69.90;;;;;;4999060;28;20045;-73
2022/05/03 01:40:30;;;;;;;8.00;4.65;;;11.70;70.30;;;;;;5008087;28;20203;-72
2022/05/03 01:43:05;;;;;;;10.32;4.93;;;11.60;70.10;;;;;;5007992;28;20124;-72
2022/05/03 01:45:35;;;;;;;7.07;4.72;;;11.50;70.50;;;;;;5036860;28;20045;-73
2022/05/03 01:48:25;;;;;;;6.07;4.23;;;11.40;70.40;;;;;;5020513;28;20132;-72
2022/05/03 01:51:11;;;;;;;7.43;4.40;;;11.30;70.90;;;;;;5026780;28;20044;-73
2022/05/03 01:53:45;;;;;;;7.82;5.00;;;11.30;71.10;;;;;;5020670;28;20445;-74
2022/05/03 01:56:45;;;;;;;6.15;4.50;;;11.30;71.00;;;;;;4986588;28;20061;-73
2022/05/03 01:59:31;;;;;;;5.30;4.80;;;11.30;71.30;;;;;;5005928;28;20030;-73
2022/05/03 02:02:14;;;;;;;6.22;4.63;;;11.30;71.40;;;;;;4964993;28;20040;-72
2022/05/03 02:05:03;;;;;;;5.82;4.43;;;11.20;71.00;;;;;;4976839;28;20848;-73
2022/05/03 02:07:41;;;;;;;4.68;4.28;;;11.20;71.20;;;;;;5013468;28;20037;-73
2022/05/03 02:10:29;;;;;;;5.22;4.72;;;11.20;71.20;;;;;;5004423;28;20083;-73
2022/05/03 02:12:57;;;;;;;5.32;4.45;;;11.20;71.20;;;;;;4997344;28;20064;-73
2022/05/03 02:15:38;;;;;;;5.35;4.85;;;11.20;71.10;;;;;;4976093;28;20033;-73
2022/05/03 02:18:05;;;;;;;6.87;4.60;;;11.20;71.50;;;;;;5007379;28;20046;-73
2022/05/03 02:20:34;;;;;;;4.60;4.10;;;11.20;71.20;;;;;;5020857;28;20065;-73
2022/05/03 02:23:25;;;;;;;4.93;4.28;;;11.10;71.30;;;;;;5021177;28;20041;-73
2022/05/03 02:25:57;;;;;;;6.47;4.03;;;11.10;71.70;;;;;;4987032;28;20033;-73
2022/05/03 02:28:59;;;;;;;5.38;4.88;;;11.20;71.50;;;;;;5028887;28;20040;-73
2022/05/03 02:31:49;;;;;;;5.40;4.47;;;11.10;71.60;;;;;;5026236;28;20536;-73
2022/05/03 02:34:33;;;;;;;7.57;4.50;;;11.10;71.60;;;;;;4987959;28;20452;-73
2022/05/03 02:37:03;;;;;;;7.00;4.80;;;11.10;71.60;;;;;;5035291;28;20037;-73
2022/05/03 02:39:30;;;;;;;5.10;4.40;;;11.10;71.30;;;;;;5010203;28;20104;-73
2022/05/03 02:41:58;;;;;;;5.30;4.70;;;11.00;71.50;;;;;;5018237;28;20048;-72
2022/05/03 02:44:26;;;;;;;7.25;4.57;;;11.00;71.50;;;;;;5026578;28;20490;-73
2022/05/03 02:46:54;;;;;;;8.65;5.15;;;11.00;71.70;;;;;;5044675;28;20029;-73
2022/05/03 02:49:39;;;;;;;7.15;4.70;;;11.00;71.80;;;;;;5057720;28;20040;-73
2022/05/03 02:52:25;;;;;;;6.82;5.18;;;11.00;72.00;;;;;;5046673;28;20186;-73
2022/05/03 02:55:17;;;;;;;5.97;4.70;;;10.90;72.20;;;;;;5036128;28;20090;-73
2022/05/03 02:57:52;;;;;;;7.47;4.28;;;10.90;72.00;;;;;;5005270;28;20117;-73
2022/05/03 03:03:36;;;;;;;6.47;4.85;;;10.90;71.90;;;;;;5016837;28;20083;-73
2022/05/03 03:06:04;;;;;;;8.02;4.85;;;10.90;72.10;;;;;;5030818;28;20036;-72
2022/05/03 03:08:44;;;;;;;6.50;5.10;;;10.80;71.80;;;;;;5019697;28;20029;-73
2022/05/03 03:11:22;;;;;;;8.70;5.57;;;10.70;72.50;;;;;;5030159;28;20037;-73
2022/05/03 03:14:00;;;;;;;9.48;5.10;;;10.70;72.50;;;;;;5020590;28;20061;-73
2022/05/03 03:16:33;;;;;;;8.95;4.82;;;10.60;72.40;;;;;;5040181;28;20135;-73
2022/05/03 03:18:59;;;;;;;5.60;4.78;;;10.60;72.70;;;;;;5024734;28;20449;-72
2022/05/03 03:21:33;;;;;;;7.13;4.47;;;10.60;72.60;;;;;;5034578;28;20113;-72
2022/05/03 03:23:59;;;;;;;6.75;4.93;;;10.50;72.70;;;;;;5041265;28;20049;-73
2022/05/03 03:26:26;;;;;;;7.22;4.88;;;10.50;72.60;;;;;;5047096;28;20048;-73
2022/05/03 03:28:52;;;;;;;5.70;5.10;;;10.50;72.70;;;;;;5035708;28;20104;-73
2022/05/03 03:31:18;;;;;;;6.95;5.00;;;10.50;72.80;;;;;;5024545;28;20095;-72
2022/05/03 03:33:44;;;;;;;6.10;5.07;;;10.50;72.80;;;;;;5041923;28;21832;-73
2022/05/03 03:36:09;;;;;;;7.07;5.55;;;10.40;72.90;;;;;;5059787;28;20048;-72
2022/05/03 03:38:40;;;;;;;6.47;5.00;;;10.40;73.00;;;;;;5026377;28;20037;-73
2022/05/03 03:41:05;;;;;;;5.35;4.43;;;10.30;73.20;;;;;;5026354;28;20476;-73
2022/05/03 03:43:31;;;;;;;6.07;4.53;;;10.30;73.20;;;;;;5022875;28;20061;-72
2022/05/03 03:45:56;;;;;;;6.97;5.47;;;10.40;73.30;;;;;;5025218;28;20048;-72
2022/05/03 03:48:22;;;;;;;6.63;5.30;;;10.30;73.20;;;;;;5032741;28;20060;-73
2022/05/03 03:50:48;;;;;;;9.23;5.22;;;10.40;73.30;;;;;;5023382;28;20053;-72
2022/05/03 03:53:15;;;;;;;6.60;5.53;;;10.30;73.30;;;;;;5021095;28;20536;-72
2022/05/03 03:55:42;;;;;;;6.05;5.15;;;10.30;73.40;;;;;;5007808;28;20048;-73
2022/05/03 03:58:07;;;;;;;6.15;5.00;;;10.30;73.40;;;;;;5009743;28;20661;-72
2022/05/03 04:00:33;;;;;;;9.77;5.32;;;10.30;73.50;;;;;;5029765;28;20064;-74
2022/05/03 04:02:59;;;;;;;8.63;5.25;;;10.20;73.40;;;;;;5056609;28;20052;-72
2022/05/03 04:05:24;;;;;;;7.07;5.65;;;10.20;73.40;;;;;;5018016;28;20402;-72
2022/05/03 04:07:50;;;;;;;7.28;5.45;;;10.10;73.40;;;;;;5039227;28;20517;-73
2022/05/03 04:10:16;;;;;;;7.18;4.65;;;10.10;73.50;;;;;;5023145;28;20044;-72
2022/05/03 04:12:42;;;;;;;7.55;4.95;;;10.10;73.60;;;;;;5026122;28;20025;-72
2022/05/03 04:15:08;;;;;;;7.30;5.18;;;10.00;73.50;;;;;;4983762;28;20539;-74
2022/05/03 04:17:34;;;;;;;5.97;4.93;;;10.00;73.60;;;;;;5010082;28;20064;-72
2022/05/03 04:19:59;;;;;;;5.75;5.10;;;10.00;73.70;;;;;;5041772;28;20448;-71
2022/05/03 04:22:32;;;;;;;7.18;5.10;;;10.00;73.70;;;;;;5048451;28;20044;-72
2022/05/03 04:24:58;;;;;;;6.45;4.78;;;9.90;73.90;;;;;;5038207;28;20040;-72
2022/05/03 04:27:24;;;;;;;8.00;5.18;;;9.90;73.90;;;;;;5009509;28;20441;-73
2022/05/03 04:29:50;;;;;;;5.95;5.25;;;9.90;74.00;;;;;;5042730;28;20045;-72
2022/05/03 04:32:15;;;;;;;5.10;4.60;;;9.90;74.20;;;;;;5037976;28;20037;-71
2022/05/03 04:34:41;;;;;;;5.10;4.60;;;9.90;74.20;;;;;;5040239;28;20029;-72
2022/05/03 04:37:06;;;;;;;12.25;5.45;;;9.90;74.10;;;;;;5023841;28;20037;-72
2022/05/03 04:39:32;;;;;;;6.35;5.30;;;10.00;74.10;;;;;;5023236;28;20048;-72
2022/05/03 04:41:57;;;;;;;7.05;5.20;;;10.00;74.20;;;;;;5040789;28;20090;-72
2022/05/03 04:44:23;;;;;;;7.45;5.63;;;9.90;74.10;;;;;;5022898;28;20047;-72
2022/05/03 04:46:48;;;;;;;7.13;5.40;;;9.90;74.20;;;;;;5033943;28;20674;-72
2022/05/03 04:49:14;;;;;;;8.10;5.53;;;10.00;74.30;;;;;;5040143;28;20087;-72
2022/05/03 04:51:39;;;;;;;5.75;5.13;;;9.90;74.30;;;;;;5005367;28;20488;-72
2022/05/03 04:54:05;;;;;;;6.47;5.22;;;10.00;74.50;;;;;;5036263;28;20089;-71
2022/05/03 04:56:32;;;;;;;5.25;4.75;;;9.90;75.40;;;;;;5051352;28;20037;-73
2022/05/03 04:58:58;;;;;;;7.65;5.55;;;10.00;74.60;;;;;;5041951;28;20240;-72
2022/05/03 05:01:23;;;;;;;6.03;5.40;;;9.90;74.50;;;;;;5035764;28;20789;-72
2022/05/03 05:03:49;;;;;;;7.68;4.90;;;10.00;74.70;;;;;;5035143;28;20090;-72
2022/05/03 05:06:15;;;;;;;6.80;5.82;;;9.90;74.70;;;;;;4997531;28;20037;-72
2022/05/03 05:08:42;;;;;;;6.32;5.45;;;9.90;74.60;;;;;;5008283;28;20033;-72
2022/05/03 05:11:07;;;;;;;5.85;5.20;;;9.90;74.80;;;;;;5039617;28;20118;-73
2022/05/03 05:13:33;;;;;;;6.85;5.15;;;9.90;74.80;;;;;;5022894;28;20581;-72
2022/05/03 05:15:59;;;;;;;6.28;5.40;;;9.90;74.90;;;;;;5006816;28;20029;-73
2022/05/03 05:18:25;;;;;;;6.57;5.05;;;9.90;75.10;;;;;;5029790;28;20060;-73
2022/05/03 05:20:51;;;;;;;5.78;5.15;;;9.90;75.20;;;;;;5042070;28;20561;-72
2022/05/03 05:23:17;;;;;;;5.72;4.72;;;9.90;75.20;;;;;;5041154;28;20112;-72
2022/05/03 05:25:42;;;;;;;5.15;4.65;;;9.90;75.20;;;;;;5023170;28;20595;-74
2022/05/03 05:28:08;;;;;;;8.52;5.75;;;9.90;75.40;;;;;;5040880;28;20030;-72
2022/05/03 05:30:33;;;;;;;7.95;5.60;;;9.90;75.40;;;;;;5026542;28;20038;-72
2022/05/03 05:32:59;;;;;;;9.50;5.68;;;9.90;75.40;;;;;;5038485;28;20052;-72
2022/05/03 05:35:25;;;;;;;7.15;5.40;;;9.90;75.60;;;;;;5027069;28;20054;-73
2022/05/03 05:37:50;;;;;;;6.20;5.60;;;10.00;75.60;;;;;;5021805;28;20052;-72
2022/05/03 05:40:16;;;;;;;7.38;5.30;;;10.00;75.60;;;;;;5026704;28;20033;-73
2022/05/03 05:42:42;;;;;;;7.13;5.35;;;10.00;75.70;;;;;;5021445;28;20037;-73
2022/05/03 05:45:07;;;;;;;5.50;5.00;;;10.10;75.80;;;;;;5016345;28;20037;-72
2022/05/03 05:47:33;;;;;;;6.80;5.53;;;10.10;75.80;;;;;;5028584;28;20571;-73
2022/05/03 05:49:58;;;;;;;7.82;5.88;;;10.10;75.70;;;;;;5041967;28;20628;-73
2022/05/03 05:55:08;;;;;;;8.68;5.90;;;10.20;75.80;;;;;;5042770;28;20048;-72
2022/05/03 05:57:34;;;;;;;12.98;5.70;;;10.30;75.80;;;;;;5029175;28;20029;-72
2022/05/03 06:00:00;;;;;;;10.40;6.85;;;10.40;75.90;;;;;;5034214;28;20493;-74
2022/05/03 06:02:25;;;;;;;6.53;5.70;;;10.40;75.80;;;;;;5028245;28;20029;-72
2022/05/03 06:04:51;;;;;;;16.35;6.15;;;10.50;75.60;;;;;;5027942;28;20043;-73
2022/05/03 06:07:16;;;;;;;10.88;5.82;;;10.60;75.60;;;;;;5028095;28;20036;-74
2022/05/03 06:09:43;;;;;;;9.88;5.90;;;10.70;75.40;;;;;;5033438;28;20133;-73
2022/05/03 06:12:09;;;;;;;8.75;6.68;;;10.70;75.30;;;;;;5047868;28;20549;-73
2022/05/03 06:14:36;;;;;;;7.75;6.53;;;10.70;75.20;;;;;;5055457;28;20044;-74
2022/05/03 06:17:01;;;;;;;10.60;6.22;;;10.80;75.40;;;;;;5051029;28;20608;-73
2022/05/03 06:19:27;;;;;;;6.75;5.75;;;10.80;75.30;;;;;;5064489;28;20039;-73
2022/05/03 06:21:52;;;;;;;7.75;6.18;;;10.90;75.40;;;;;;5031309;28;20589;-73
2022/05/03 06:24:18;;;;;;;10.77;6.38;;;10.90;75.30;;;;;;5021774;28;20088;-73
2022/05/03 06:26:44;;;;;;;13.90;7.45;;;11.00;75.40;;;;;;5029171;28;20041;-73
2022/05/03 06:29:10;;;;;;;13.05;6.75;;;11.00;75.50;;;;;;5016772;28;20158;-74
2022/05/03 06:31:36;;;;;;;13.45;6.68;;;11.10;75.40;;;;;;5045411;28;20732;-73
2022/05/03 06:34:03;;;;;;;10.15;6.82;;;11.10;75.40;;;;;;5045520;28;20607;-74
2022/05/03 06:36:28;;;;;;;14.30;7.30;;;11.20;75.50;;;;;;5063109;28;20082;-73
2022/05/03 06:38:54;;;;;;;11.48;7.28;;;11.20;75.40;;;;;;5030713;28;20032;-73
2022/05/03 06:41:19;;;;;;;13.27;6.93;;;11.30;75.50;;;;;;5046981;28;20033;-74
2022/05/03 06:43:45;;;;;;;11.18;7.45;;;11.40;75.40;;;;;;5018309;28;20538;-73
2022/05/03 06:46:11;;;;;;;12.25;7.40;;;11.50;75.40;;;;;;5028485;28;20608;-73
2022/05/03 06:48:36;;;;;;;7.78;6.53;;;11.50;75.30;;;;;;5039713;28;20503;-74
2022/05/03 06:51:02;;;;;;;10.75;7.75;;;11.60;75.30;;;;;;5037262;28;20045;-73
2022/05/03 06:53:28;;;;;;;13.30;7.97;;;11.70;75.20;;;;;;5043129;28;20036;-74
2022/05/03 06:55:53;;;;;;;11.55;8.70;;;11.70;75.20;;;;;;5064996;28;20413;-73
2022/05/03 06:58:19;;;;;;;12.82;8.73;;;11.80;75.30;;;;;;5029571;28;20078;-73
2022/05/03 07:00:44;;;;;;;10.98;7.97;;;11.90;75.20;;;;;;5063798;28;20052;-74
2022/05/03 07:03:10;;;;;;;11.65;8.25;;;11.90;75.20;;;;;;5030662;28;20676;-74
2022/05/03 07:05:35;;;;;;;14.13;7.80;;;12.00;75.00;;;;;;5032515;28;20505;-74
2022/05/03 07:08:01;;;;;;;9.82;7.32;;;12.10;74.90;;;;;;5057635;28;20509;-74
2022/05/03 07:10:26;;;;;;;12.25;8.25;;;12.20;74.90;;;;;;5047111;28;20059;-73
2022/05/03 07:12:52;;;;;;;17.60;8.07;;;12.30;74.90;;;;;;5013444;28;20041;-73
2022/05/03 07:15:21;;;;;;;10.75;7.57;;;12.40;74.90;;;;;;5011241;28;20033;-73
2022/05/03 07:23:16;;;;;;;12.80;7.28;;;12.70;74.50;;;;;;5027340;28;20586;-73
2022/05/03 07:25:42;;;;;;;10.40;7.40;;;12.80;74.40;;;;;;5000965;28;20037;-73
2022/05/03 07:28:07;;;;;;;10.02;6.90;;;12.90;74.40;;;;;;5015688;28;20091;-73
2022/05/03 07:30:34;;;;;;;10.50;6.68;;;13.00;74.40;;;;;;5070607;28;20131;-73
2022/05/03 07:33:00;;;;;;;9.00;5.95;;;13.20;74.30;;;;;;5050706;28;20571;-73
2022/05/03 07:35:25;;;;;;;12.10;6.97;;;13.30;74.10;;;;;;5065132;28;20063;-74
2022/05/03 07:37:51;;;;;;;11.32;7.13;;;13.40;73.80;;;;;;5067145;28;20041;-74
2022/05/03 07:40:16;;;;;;;9.90;6.43;;;13.50;73.50;;;;;;5032133;28;20417;-73
2022/05/03 07:42:42;;;;;;;7.65;6.75;;;13.60;73.30;;;;;;5015872;28;20374;-73
2022/05/03 07:45:08;;;;;;;14.00;8.05;;;13.80;73.20;;;;;;5031110;28;20090;-73
2022/05/03 07:47:34;;;;;;;11.30;7.63;;;13.90;73.00;;;;;;5030701;28;20724;-73
2022/05/03 07:49:59;;;;;;;12.45;7.00;;;14.00;72.70;;;;;;5029782;28;20119;-74
2022/05/03 07:52:27;;;;;;;14.07;7.43;;;14.20;72.50;;;;;;5006654;28;20680;-73
2022/05/03 07:54:53;;;;;;;7.93;6.97;;;14.30;72.20;;;;;;5048741;28;20128;-73
2022/05/03 07:57:18;;;;;;;11.45;6.95;;;14.50;72.10;;;;;;5048366;28;20556;-74
2022/05/03 07:59:44;;;;;;;16.25;7.15;;;14.60;71.70;;;;;;5047043;28;20059;-73
2022/05/03 08:02:09;;;;;;;7.15;5.57;;;14.70;71.40;;;;;;5044639;28;20029;-74
2022/05/03 08:04:35;;;;;;;10.60;6.28;;;14.90;71.10;;;;;;5064524;28;20041;-73
2022/05/03 08:07:00;;;;;;;10.52;5.60;;;15.10;70.90;;;;;;5068520;28;20029;-73
2022/05/03 08:09:26;;;;;;;9.77;6.07;;;15.20;70.60;;;;;;5048100;28;20629;-73
2022/05/03 08:11:53;;;;;;;12.30;6.18;;;15.40;70.30;;;;;;5036655;28;20306;-73
2022/05/03 08:14:19;;;;;;;8.35;5.82;;;15.60;70.00;;;;;;5063464;28;20041;-74
2022/05/03 08:16:46;;;;;;;13.13;5.68;;;15.80;69.70;;;;;;5056869;28;20035;-74
2022/05/03 08:19:11;;;;;;;5.75;4.93;;;15.90;69.20;;;;;;5058559;28;20033;-74
2022/05/03 08:21:37;;;;;;;7.20;4.97;;;16.10;68.80;;;;;;5069193;28;20029;-74
2022/05/03 08:24:03;;;;;;;8.43;6.03;;;16.30;68.40;;;;;;5067979;28;20126;-73
2022/05/03 08:26:31;;;;;;;8.60;6.57;;;16.50;68.10;;;;;;4999026;28;20912;-73
2022/05/03 08:28:57;;;;;;;8.68;5.95;;;16.70;67.60;;;;;;5030202;28;20056;-73
2022/05/03 08:31:22;;;;;;;10.98;5.72;;;16.90;67.20;;;;;;5035399;28;20029;-74
2022/05/03 08:33:48;;;;;;;7.43;5.40;;;17.20;66.80;;;;;;5049399;28;20425;-73
2022/05/03 08:36:14;;;;;;;7.95;5.28;;;17.40;66.50;;;;;;5061913;28;20040;-73
2022/05/03 08:44:08;;;;;;;8.27;5.32;;;18.20;65.00;;;;;;5017808;28;20558;-74
2022/05/03 08:46:33;;;;;;;9.88;5.97;;;18.40;64.30;;;;;;5016362;28;20045;-73
2022/05/03 08:49:03;;;;;;;8.68;5.63;;;18.60;63.70;;;;;;5012479;28;20053;-73
2022/05/03 08:51:32;;;;;;;8.57;5.00;;;18.80;63.10;;;;;;5010600;28;20107;-74
2022/05/03 08:54:01;;;;;;;8.45;5.15;;;19.00;62.70;;;;;;5025395;28;20033;-74
2022/05/03 08:56:26;;;;;;;6.72;5.00;;;19.30;62.30;;;;;;5014689;28;20090;-74
2022/05/03 08:58:52;;;;;;;5.82;4.50;;;19.50;61.80;;;;;;5032919;28;20034;-74
2022/05/03 09:01:18;;;;;;;6.45;5.00;;;19.80;61.40;;;;;;5048642;28;20034;-74
2022/05/03 09:03:44;;;;;;;5.53;4.38;;;20.00;60.80;;;;;;5028567;28;20044;-74
2022/05/03 09:06:09;;;;;;;5.78;4.82;;;20.20;60.40;;;;;;5028226;28;20116;-74
2022/05/03 09:08:35;;;;;;;7.28;3.88;;;20.40;60.00;;;;;;5013470;28;20017;-74
2022/05/03 09:11:12;;;;;;;7.72;3.42;;;20.70;59.70;;;;;;4999858;28;20063;-74
2022/05/03 09:13:37;;;;;;;8.57;4.82;;;21.00;59.10;;;;;;5007792;28;20037;-75
2022/05/03 09:16:13;;;;;;;5.57;4.72;;;21.30;59.00;;;;;;5028392;28;20068;-73
2022/05/03 09:18:39;;;;;;;5.90;4.00;;;21.50;58.00;;;;;;4996101;28;20718;-74
2022/05/03 09:24:03;;;;;;;6.95;4.18;;;22.00;57.40;;;;;;5029835;28;20041;-75
2022/05/03 09:26:30;;;;;;;5.53;3.80;;;22.20;56.60;;;;;;5015063;28;20033;-74
2022/05/03 09:29:02;;;;;;;4.18;3.45;;;22.40;56.50;;;;;;5005591;28;20114;-74
2022/05/03 09:31:37;;;;;;;6.07;4.10;;;22.60;56.00;;;;;;5010551;28;20033;-74
2022/05/03 09:34:25;;;;;;;6.93;3.72;;;22.80;55.10;;;;;;5028107;28;20042;-74
2022/05/03 09:37:09;;;;;;;4.07;3.40;;;22.90;54.30;;;;;;4992698;28;20052;-75
2022/05/03 09:39:37;;;;;;;6.05;3.90;;;23.10;54.60;;;;;;5036530;28;20036;-74
2022/05/03 09:42:13;;;;;;;3.60;3.20;;;23.40;54.40;;;;;;5001122;28;20037;-74
2022/05/03 09:44:54;;;;;;;4.47;3.80;;;23.70;53.40;;;;;;5029899;28;20029;-74
2022/05/03 09:47:24;;;;;;;5.63;4.05;;;23.90;52.90;;;;;;4999867;28;20033;-74
2022/05/03 09:49:49;;;;;;;6.70;4.22;;;24.20;53.00;;;;;;4987552;28;20924;-76
2022/05/03 09:52:30;;;;;;;7.25;4.45;;;24.40;52.50;;;;;;5012090;28;20121;-74
2022/05/03 09:54:59;;;;;;;4.55;3.88;;;24.60;51.10;;;;;;5000390;28;20049;-74
2022/05/03 09:57:26;;;;;;;4.32;3.78;;;24.60;51.30;;;;;;5007087;28;20038;-74
2022/05/03 09:59:53;;;;;;;6.10;3.60;;;24.70;50.90;;;;;;4995050;28;20108;-75
2022/05/03 10:02:20;;;;;;;7.40;3.30;;;24.90;50.70;;;;;;5032240;28;20090;-74
2022/05/03 10:04:46;;;;;;;3.80;3.35;;;25.20;50.20;;;;;;5031406;28;20044;-74
2022/05/03 10:07:12;;;;;;;4.18;3.88;;;25.40;49.90;;;;;;4997117;28;20044;-75
2022/05/03 10:09:39;;;;;;;6.55;3.80;;;25.60;49.30;;;;;;4998282;28;20033;-75
2022/05/03 10:12:11;;;;;;;5.05;3.22;;;25.70;48.60;;;;;;4984147;28;20046;-75
2022/05/03 10:14:38;;;;;;;4.57;2.90;;;25.70;48.00;;;;;;5042978;28;20040;-74
2022/05/03 10:22:36;;;;;;;3.58;2.80;;;26.30;47.10;;;;;;5029220;28;20048;-75
2022/05/03 10:25:04;;;;;;;4.30;3.58;;;26.50;46.80;;;;;;5017128;28;20057;-74
2022/05/03 10:27:30;;;;;;;4.03;3.20;;;26.70;46.40;;;;;;5030718;28;20042;-75
2022/05/03 10:30:22;;;;;;;4.03;3.10;;;26.80;46.00;;;;;;5026609;28;20049;-74
2022/05/03 10:33:19;;;;;;;4.60;3.25;;;26.90;44.20;;;;;;5021097;28;20052;-74
2022/05/03 10:35:44;;;;;;;3.92;3.38;;;27.00;43.80;;;;;;5039258;28;20128;-75
2022/05/03 10:38:10;;;;;;;4.47;3.08;;;27.20;44.90;;;;;;5025082;28;20124;-75
2022/05/03 10:40:43;;;;;;;5.05;3.42;;;27.30;44.40;;;;;;5035103;28;20045;-75
2022/05/03 10:43:14;;;;;;;4.63;3.63;;;27.50;43.70;;;;;;5008911;28;20067;-74
2022/05/03 10:46:07;;;;;;;3.90;3.10;;;27.50;43.30;;;;;;5032403;28;20131;-75
2022/05/03 10:48:34;;;;;;;5.68;3.80;;;27.50;41.80;;;;;;5019426;28;20100;-75
2022/05/03 10:51:05;;;;;;;4.82;3.33;;;27.60;43.10;;;;;;5047436;28;20037;-76
2022/05/03 10:53:34;;;;;;;3.72;3.35;;;27.70;42.30;;;;;;5014883;28;20041;-75
2022/05/03 10:56:05;;;;;;;4.45;2.95;;;27.90;42.30;;;;;;4996974;28;20052;-74
2022/05/03 10:58:32;;;;;;;6.35;3.47;;;28.10;42.10;;;;;;5027578;28;20172;-76
2022/05/03 11:01:08;;;;;;;6.38;3.45;;;28.30;41.90;;;;;;4985129;28;20034;-74
2022/05/03 11:03:41;;;;;;;6.03;3.58;;;28.40;40.50;;;;;;5047818;28;20041;-75
2022/05/03 11:06:18;;;;;;;3.30;3.10;;;28.60;40.50;;;;;;5024601;28;20026;-74
2022/05/03 11:11:49;;;;;;;4.38;3.80;;;28.80;39.50;;;;;;5032606;28;20079;-74
2022/05/03 11:14:24;;;;;;;4.82;3.00;;;28.90;39.70;;;;;;5031451;28;20095;-75
2022/05/03 11:17:04;;;;;;;3.92;3.53;;;29.00;39.70;;;;;;5025877;28;20060;-75
2022/05/03 11:19:36;;;;;;;5.00;3.38;;;29.10;38.00;;;;;;5051876;28;20124;-76
2022/05/03 11:22:08;;;;;;;5.93;3.72;;;29.20;39.40;;;;;;5036129;28;20100;-74
2022/05/03 11:24:33;;;;;;;10.13;3.65;;;29.30;39.40;;;;;;5027797;28;20043;-74
2022/05/03 11:27:01;;;;;;;4.50;3.10;;;29.40;39.10;;;;;;5033488;28;20133;-75
2022/05/03 11:29:34;;;;;;;5.50;3.10;;;29.60;38.80;;;;;;5045022;28;20030;-75
2022/05/03 11:32:01;;;;;;;3.60;3.30;;;29.70;38.20;;;;;;5045678;28;20075;-75
2022/05/03 11:34:26;;;;;;;6.22;3.13;;;29.80;38.20;;;;;;5030743;28;20041;-74
2022/05/03 11:36:52;;;;;;;4.97;3.47;;;29.90;38.20;;;;;;5018613;28;20124;-74
2022/05/03 11:39:18;;;;;;;3.65;3.30;;;30.00;38.00;;;;;;5008868;28;20049;-75
2022/05/03 11:41:44;;;;;;;3.95;2.92;;;30.20;37.80;;;;;;5024089;28;20036;-74
2022/05/03 11:44:10;;;;;;;5.63;3.33;;;30.30;37.70;;;;;;5032035;28;20044;-74
2022/05/03 11:46:37;;;;;;;3.95;3.20;;;30.50;37.50;;;;;;4998021;28;20037;-75
2022/05/03 11:49:04;;;;;;;3.85;3.03;;;30.50;37.00;;;;;;5039878;28;20033;-74
2022/05/03 11:57:22;;;;;;;5.50;3.22;;;30.90;36.40;;;;;;5041572;28;20052;-75
2022/05/03 11:59:51;;;;;;;4.47;2.95;;;31.10;36.00;;;;;;5013724;28;20030;-75
2022/05/03 12:02:19;;;;;;;4.82;3.00;;;31.20;35.90;;;;;;5021801;28;20047;-74
2022/05/03 12:05:07;;;;;;;4.05;3.55;;;31.40;35.60;;;;;;5018357;28;20081;-75
2022/05/03 12:08:05;;;;;;;3.58;3.28;;;31.50;33.60;;;;;;5014993;28;20048;-74
2022/05/03 12:10:35;;;;;;;4.78;3.35;;;31.40;34.70;;;;;;5000641;28;20051;-74
2022/05/03 12:13:03;;;;;;;2.97;2.78;;;31.50;35.00;;;;;;5008263;28;20061;-75
2022/05/03 12:15:29;;;;;;;3.05;2.67;;;31.60;34.70;;;;;;5015256;28;20447;-75
2022/05/03 12:18:16;;;;;;;3.47;3.13;;;31.70;34.60;;;;;;5031130;28;20064;-75
2022/05/03 12:20:48;;;;;;;3.25;3.00;;;31.90;34.60;;;;;;5045998;28;20036;-75
2022/05/03 12:23:17;;;;;;;3.45;2.50;;;32.00;34.30;;;;;;5013424;28;20034;-74
2022/05/03 12:25:44;;;;;;;3.85;2.58;;;32.10;34.20;;;;;;5016285;28;20039;-75
2022/05/03 12:28:09;;;;;;;3.25;2.78;;;32.20;34.00;;;;;;4995922;28;20128;-74
2022/05/03 12:30:35;;;;;;;2.88;2.30;;;32.30;33.90;;;;;;5003563;28;20400;-75
2022/05/03 12:33:06;;;;;;;4.93;2.75;;;32.40;34.00;;;;;;5010593;28;20094;-75
2022/05/03 12:35:32;;;;;;;3.03;2.33;;;32.50;33.80;;;;;;5008781;28;20069;-75
2022/05/03 12:38:05;;;;;;;4.38;2.30;;;32.70;33.70;;;;;;5029608;28;20131;-75
2022/05/03 12:40:31;;;;;;;4.25;2.80;;;32.70;33.40;;;;;;5027644;28;20120;-76
2022/05/03 12:42:57;;;;;;;3.20;2.50;;;32.90;33.10;;;;;;5046788;28;24016;-75
2022/05/03 12:45:29;;;;;;;4.00;2.80;;;32.90;32.50;;;;;;5046248;28;20044;-74
2022/05/03 12:47:54;;;;;;;6.38;2.80;;;33.00;32.00;;;;;;5063221;28;20077;-75
2022/05/03 12:50:20;;;;;;;3.28;2.53;;;33.10;32.30;;;;;;5026757;28;20383;-75
2022/05/03 12:52:46;;;;;;;4.68;2.78;;;33.10;32.10;;;;;;5040499;28;20025;-75
2022/05/03 12:55:11;;;;;;;2.70;2.38;;;33.20;32.10;;;;;;5034104;28;20030;-75
2022/05/03 13:00:21;;;;;;;4.68;2.55;;;33.20;31.70;;;;;;5054154;28;20028;-75
2022/05/03 13:02:48;;;;;;;3.03;2.60;;;33.10;31.50;;;;;;5052837;28;20412;-74
2022/05/03 13:05:14;;;;;;;4.97;2.92;;;33.10;31.50;;;;;;5024385;28;20449;-76
2022/05/03 13:07:39;;;;;;;5.53;2.60;;;33.10;31.50;;;;;;5031180;28;20167;-75
2022/05/03 13:10:05;;;;;;;3.42;2.92;;;32.80;31.10;;;;;;5052471;28;20100;-76
2022/05/03 13:12:31;;;;;;;3.10;2.83;;;32.60;31.30;;;;;;5014510;28;20120;-76
2022/05/03 13:14:57;;;;;;;4.63;3.10;;;32.40;31.70;;;;;;5073340;28;20174;-76
2022/05/03 13:17:22;;;;;;;5.28;2.97;;;32.30;31.80;;;;;;5029602;28;20128;-75
2022/05/03 13:19:48;;;;;;;9.10;3.55;;;32.10;31.80;;;;;;5044323;28;20040;-76
2022/05/03 13:22:13;;;;;;;3.63;2.67;;;32.00;32.00;;;;;;5033351;28;20041;-75
2022/05/03 13:24:39;;;;;;;3.20;2.72;;;32.00;32.30;;;;;;5045762;28;20033;-75
2022/05/03 13:27:04;;;;;;;4.28;3.30;;;31.80;32.50;;;;;;5049978;28;20165;-75
2022/05/03 13:29:30;;;;;;;6.20;3.20;;;31.70;32.70;;;;;;5014751;28;20620;-75
2022/05/03 13:31:55;;;;;;;4.45;3.20;;;31.60;32.70;;;;;;5020626;28;20034;-76
2022/05/03 13:34:21;;;;;;;4.20;3.20;;;31.50;32.90;;;;;;5040381;28;20037;-75
2022/05/03 13:42:15;;;;;;;3.28;2.97;;;31.30;33.30;;;;;;5015042;28;20056;-76